Time;durP1;ratioP1;P1;durP2;ratioP2;P2;SDS_P1;SDS_P2;PMS_P1;PMS_P2;Temp;Humidity;BMP_temperature;BMP_pressure;BME280_temperature;BME280_humidity;BME280_pressure;Samples;Min_cycle;Max_cycle;Signal;HPM_P1;HPM_P2
2023/05/18 00:00:09;;;;;;;11.73;5.77;;;;;;;;;;757003;180;919016;-71
2023/05/18 00:02:30;;;;;;;15.53;6.17;;;;;;;;;;761636;180;911435;-70
2023/05/18 00:04:56;;;;;;;9.07;5.03;;;;;;;;;;758776;180;911557;-70
2023/05/18 00:07:21;;;;;;;10.30;5.63;;;;;;;;;;758290;180;918163;-71
2023/05/18 00:09:47;;;;;;;10.60;5.17;;;;;;;;;;761898;182;819275;-69
2023/05/18 00:12:13;;;;;;;12.43;4.93;;;;;;;;;;755755;181;918189;-63
2023/05/18 00:14:39;;;;;;;15.10;5.37;;;;;;;;;;757067;182;918048;-70
2023/05/18 00:17:05;;;;;;;13.37;5.03;;;;;;;;;;756005;181;917700;-62
2023/05/18 00:19:31;;;;;;;10.83;4.03;;;;;;;;;;762007;180;920831;-62
2023/05/18 00:21:57;;;;;;;8.83;4.30;;;;;;;;;;757272;180;924294;-62
2023/05/18 00:24:22;;;;;;;7.77;4.73;;;;;;;;;;757164;180;919227;-62
2023/05/18 00:26:48;;;;;;;11.93;3.80;;;;;;;;;;761500;180;919522;-63
2023/05/18 00:29:14;;;;;;;8.87;4.80;;;;;;;;;;756172;181;918067;-69
2023/05/18 00:31:41;;;;;;;12.32;4.32;;;;;;;;;;757338;180;918874;-70
2023/05/18 00:34:06;;;;;;;10.33;5.57;;;;;;;;;;762291;180;816774;-63
2023/05/18 00:36:32;;;;;;;11.95;6.25;;;;;;;;;;757857;180;918556;-63
2023/05/18 00:38:57;;;;;;;9.73;5.20;;;;;;;;;;756419;181;917115;-69
2023/05/18 00:41:25;;;;;;;4.82;3.28;;;;;;;;;;756665;181;917947;-63
2023/05/18 00:43:49;;;;;;;9.13;3.77;;;;;;;;;;758185;182;929337;-69
2023/05/18 00:46:15;;;;;;;20.40;6.07;;;;;;;;;;758099;182;919345;-62
2023/05/18 00:48:41;;;;;;;7.83;5.10;;;;;;;;;;757628;180;921222;-70
2023/05/18 00:51:07;;;;;;;9.20;4.30;;;;;;;;;;763305;180;820861;-62
2023/05/18 00:53:33;;;;;;;5.33;3.10;;;;;;;;;;757990;180;926404;-69
2023/05/18 00:55:59;;;;;;;13.43;5.03;;;;;;;;;;758375;180;941725;-62
2023/05/18 00:58:25;;;;;;;11.48;4.78;;;;;;;;;;763166;180;818417;-68
2023/05/18 01:00:50;;;;;;;13.73;4.97;;;;;;;;;;759690;180;803043;-69
2023/05/18 01:03:18;;;;;;;29.47;4.00;;;;;;;;;;758033;181;920583;-62
2023/05/18 01:05:42;;;;;;;11.17;4.23;;;;;;;;;;761279;180;919642;-69
2023/05/18 01:08:08;;;;;;;12.10;4.82;;;;;;;;;;757022;180;922602;-62
2023/05/18 01:10:34;;;;;;;17.77;5.43;;;;;;;;;;756740;181;938012;-69
2023/05/18 01:13:00;;;;;;;11.65;4.50;;;;;;;;;;756834;180;918951;-71
2023/05/18 01:15:31;;;;;;;8.73;3.70;;;;;;;;;;757723;185;918886;-69
2023/05/18 01:18:13;;;;;;;10.07;4.10;;;;;;;;;;756486;180;932898;-71
2023/05/18 01:20:37;;;;;;;9.30;4.40;;;;;;;;;;756507;181;905781;-70
2023/05/18 01:23:08;;;;;;;19.60;6.90;;;;;;;;;;757129;180;814851;-70
2023/05/18 01:25:33;;;;;;;6.33;4.10;;;;;;;;;;763066;181;892250;-71
2023/05/18 01:27:59;;;;;;;13.60;4.30;;;;;;;;;;756526;180;918883;-64
2023/05/18 01:30:24;;;;;;;13.10;5.40;;;;;;;;;;756548;181;918973;-63
2023/05/18 01:32:50;;;;;;;6.60;3.70;;;;;;;;;;755387;180;919056;-70
2023/05/18 01:35:16;;;;;;;5.03;3.80;;;;;;;;;;763050;180;918931;-63
2023/05/18 01:37:42;;;;;;;10.90;5.30;;;;;;;;;;757706;180;918965;-63
2023/05/18 01:40:08;;;;;;;7.60;4.83;;;;;;;;;;756450;180;920656;-70
2023/05/18 01:42:34;;;;;;;14.60;4.80;;;;;;;;;;762923;180;918886;-63
2023/05/18 01:45:00;;;;;;;11.63;4.43;;;;;;;;;;756501;181;932239;-70
2023/05/18 01:47:26;;;;;;;9.33;5.10;;;;;;;;;;756613;181;918956;-70
2023/05/18 01:49:54;;;;;;;13.00;5.80;;;;;;;;;;762203;180;919427;-69
2023/05/18 01:52:24;;;;;;;10.07;6.17;;;;;;;;;;757443;181;917031;-63
2023/05/18 01:54:50;;;;;;;10.13;3.20;;;;;;;;;;760947;179;817280;-63
2023/05/18 01:57:15;;;;;;;9.83;3.93;;;;;;;;;;758962;180;916048;-70
2023/05/18 01:59:41;;;;;;;7.97;4.07;;;;;;;;;;764482;180;905490;-70
2023/05/18 02:02:07;;;;;;;13.80;5.33;;;;;;;;;;758889;181;942874;-70
2023/05/18 02:04:34;;;;;;;11.83;6.00;;;;;;;;;;758011;180;945940;-70
2023/05/18 02:06:59;;;;;;;10.30;4.90;;;;;;;;;;761582;180;928747;-71
2023/05/18 02:09:25;;;;;;;14.80;4.60;;;;;;;;;;756388;179;918487;-63
2023/05/18 02:11:50;;;;;;;10.20;4.50;;;;;;;;;;756272;180;916395;-71
2023/05/18 02:14:16;;;;;;;8.83;4.07;;;;;;;;;;761611;180;915615;-71
2023/05/18 02:16:45;;;;;;;10.27;5.20;;;;;;;;;;759516;180;887384;-63
2023/05/18 02:19:08;;;;;;;14.50;4.93;;;;;;;;;;759751;180;818029;-70
2023/05/18 02:21:34;;;;;;;9.77;3.83;;;;;;;;;;754853;180;920808;-70
2023/05/18 02:24:00;;;;;;;10.00;3.57;;;;;;;;;;761577;181;920405;-70
2023/05/18 02:26:26;;;;;;;12.27;3.17;;;;;;;;;;755856;183;931136;-64
2023/05/18 02:28:51;;;;;;;13.40;5.85;;;;;;;;;;759098;180;920071;-70
2023/05/18 02:31:17;;;;;;;11.13;5.20;;;;;;;;;;761564;180;919067;-64
2023/05/18 02:33:43;;;;;;;9.63;4.10;;;;;;;;;;757443;181;917205;-70
2023/05/18 02:36:09;;;;;;;11.20;4.47;;;;;;;;;;756670;180;918564;-63
2023/05/18 02:38:35;;;;;;;23.23;6.33;;;;;;;;;;760927;180;918427;-69
2023/05/18 02:41:01;;;;;;;12.50;6.13;;;;;;;;;;757275;181;919293;-63
2023/05/18 02:43:26;;;;;;;18.40;8.37;;;;;;;;;;757382;180;895105;-62
2023/05/18 02:45:52;;;;;;;14.30;5.60;;;;;;;;;;756279;180;920254;-63
2023/05/18 02:48:18;;;;;;;22.70;9.13;;;;;;;;;;760459;180;815889;-71
2023/05/18 02:50:45;;;;;;;9.63;6.00;;;;;;;;;;758233;180;918053;-70
2023/05/18 02:53:10;;;;;;;13.02;5.47;;;;;;;;;;753493;184;919080;-69
2023/05/18 02:55:36;;;;;;;20.50;6.70;;;;;;;;;;762288;181;900964;-70
2023/05/18 02:58:01;;;;;;;17.13;5.50;;;;;;;;;;756321;180;917583;-69
2023/05/18 03:00:29;;;;;;;12.13;6.00;;;;;;;;;;756837;181;919416;-63
2023/05/18 03:02:56;;;;;;;19.57;5.73;;;;;;;;;;760967;180;919655;-69
2023/05/18 03:05:22;;;;;;;11.47;4.50;;;;;;;;;;758285;180;919615;-70
2023/05/18 03:07:49;;;;;;;11.70;4.97;;;;;;;;;;758121;180;919358;-69
2023/05/18 03:10:11;;;;;;;11.07;6.00;;;;;;;;;;760756;181;919372;-69
2023/05/18 03:12:37;;;;;;;8.93;4.53;;;;;;;;;;758278;181;919600;-69
2023/05/18 03:15:03;;;;;;;9.30;5.03;;;;;;;;;;759381;181;818698;-69
2023/05/18 03:17:29;;;;;;;8.43;4.57;;;;;;;;;;759160;180;918411;-62
2023/05/18 03:19:54;;;;;;;9.60;6.50;;;;;;;;;;762049;180;916655;-63
2023/05/18 03:22:20;;;;;;;18.83;5.73;;;;;;;;;;759394;180;920270;-62
2023/05/18 03:24:50;;;;;;;13.80;5.87;;;;;;;;;;757793;180;901420;-64
2023/05/18 03:27:15;;;;;;;11.12;4.43;;;;;;;;;;764226;181;847271;-69
2023/05/18 03:29:38;;;;;;;25.43;7.57;;;;;;;;;;759471;180;912437;-62
2023/05/18 03:32:04;;;;;;;19.87;9.23;;;;;;;;;;757799;181;919522;-68
2023/05/18 03:34:30;;;;;;;14.73;5.93;;;;;;;;;;760342;180;919251;-70
2023/05/18 03:36:56;;;;;;;14.80;6.40;;;;;;;;;;756238;181;920245;-62
2023/05/18 03:39:21;;;;;;;14.13;6.87;;;;;;;;;;756306;180;918875;-69
2023/05/18 03:41:47;;;;;;;26.60;8.70;;;;;;;;;;755512;180;921930;-62
2023/05/18 03:44:13;;;;;;;23.63;13.93;;;;;;;;;;757721;183;917428;-62
2023/05/18 03:46:39;;;;;;;12.40;6.50;;;;;;;;;;756472;180;917988;-63
2023/05/18 03:49:06;;;;;;;24.33;10.80;;;;;;;;;;762370;180;846822;-74
2023/05/18 03:51:31;;;;;;;12.17;5.10;;;;;;;;;;766046;181;888674;-73
2023/05/18 03:53:57;;;;;;;17.33;5.10;;;;;;;;;;769161;180;922939;-73
2023/05/18 03:56:22;;;;;;;19.27;5.27;;;;;;;;;;766088;180;919269;-73
2023/05/18 03:58:50;;;;;;;10.53;6.50;;;;;;;;;;775640;180;899585;-74
2023/05/18 04:01:17;;;;;;;12.97;5.60;;;;;;;;;;767767;180;918478;-73
2023/05/18 04:03:41;;;;;;;12.20;5.73;;;;;;;;;;770213;180;905407;-73
2023/05/18 04:06:06;;;;;;;10.20;4.45;;;;;;;;;;778412;180;807028;-73
2023/05/18 04:08:33;;;;;;;13.93;4.80;;;;;;;;;;760594;182;919545;-73
2023/05/18 04:10:58;;;;;;;21.63;4.17;;;;;;;;;;769296;181;978333;-74
2023/05/18 04:13:23;;;;;;;16.00;5.67;;;;;;;;;;768141;180;917727;-73
2023/05/18 04:15:49;;;;;;;11.10;5.17;;;;;;;;;;775250;180;816214;-73
2023/05/18 04:18:16;;;;;;;6.63;3.87;;;;;;;;;;772343;180;923632;-73
2023/05/18 04:20:44;;;;;;;14.80;7.83;;;;;;;;;;775056;180;917794;-74
2023/05/18 04:23:08;;;;;;;18.70;5.13;;;;;;;;;;771881;180;921148;-73
2023/05/18 04:25:33;;;;;;;11.77;4.80;;;;;;;;;;772277;180;713635;-72
2023/05/18 04:27:59;;;;;;;10.60;4.80;;;;;;;;;;764418;181;917980;-73
2023/05/18 04:30:25;;;;;;;18.77;4.80;;;;;;;;;;773221;180;871659;-74
2023/05/18 04:32:50;;;;;;;12.47;7.80;;;;;;;;;;767921;180;918313;-74
2023/05/18 04:35:17;;;;;;;13.60;7.70;;;;;;;;;;764732;180;908411;-73
2023/05/18 04:37:42;;;;;;;10.38;5.70;;;;;;;;;;768148;181;921427;-73
2023/05/18 04:40:11;;;;;;;11.93;6.00;;;;;;;;;;766787;180;917130;-73
2023/05/18 04:42:34;;;;;;;17.03;8.30;;;;;;;;;;762991;180;914279;-79
2023/05/18 04:45:00;;;;;;;14.65;8.50;;;;;;;;;;766800;180;920778;-73
2023/05/18 04:47:26;;;;;;;22.70;7.87;;;;;;;;;;777585;180;808918;-73
2023/05/18 04:49:51;;;;;;;11.93;5.70;;;;;;;;;;769743;180;907779;-73
2023/05/18 04:52:18;;;;;;;19.17;7.30;;;;;;;;;;767303;180;920641;-73
2023/05/18 04:54:43;;;;;;;16.70;7.27;;;;;;;;;;772678;180;815503;-73
2023/05/18 04:57:09;;;;;;;20.03;6.00;;;;;;;;;;767817;180;819750;-73
2023/05/18 04:59:36;;;;;;;18.10;10.40;;;;;;;;;;766365;180;929533;-73
2023/05/18 05:02:01;;;;;;;17.77;8.38;;;;;;;;;;772143;180;918564;-73
2023/05/18 05:04:26;;;;;;;23.17;10.67;;;;;;;;;;764818;181;1021604;-73
2023/05/18 05:06:52;;;;;;;14.23;8.00;;;;;;;;;;768852;181;918615;-73
2023/05/18 05:09:18;;;;;;;25.97;10.70;;;;;;;;;;772612;180;886886;-72
2023/05/18 05:11:44;;;;;;;18.10;9.07;;;;;;;;;;765410;181;917660;-73
2023/05/18 05:14:10;;;;;;;20.50;9.63;;;;;;;;;;769275;180;919018;-74
2023/05/18 05:16:36;;;;;;;17.60;6.83;;;;;;;;;;766381;180;918265;-72
2023/05/18 05:19:02;;;;;;;14.63;8.00;;;;;;;;;;771811;180;1002656;-72
2023/05/18 05:21:27;;;;;;;20.47;9.30;;;;;;;;;;765825;181;906782;-72
2023/05/18 05:23:53;;;;;;;21.33;6.77;;;;;;;;;;772139;180;915966;-72
2023/05/18 05:26:20;;;;;;;13.77;6.97;;;;;;;;;;776066;180;939788;-72
2023/05/18 05:28:45;;;;;;;17.53;8.43;;;;;;;;;;771403;179;811139;-72
2023/05/18 05:31:11;;;;;;;21.90;8.63;;;;;;;;;;770024;180;919229;-72
2023/05/18 05:33:37;;;;;;;9.13;4.93;;;;;;;;;;768791;180;917508;-72
2023/05/18 05:36:06;;;;;;;15.53;6.23;;;;;;;;;;787207;176;626355;-71
2023/05/18 05:38:31;;;;;;;7.70;5.33;;;;;;;;;;769383;181;639143;-72
2023/05/18 05:40:57;;;;;;;11.67;4.20;;;;;;;;;;767411;181;925873;-72
2023/05/18 05:43:23;;;;;;;10.07;6.00;;;;;;;;;;777429;180;918194;-72
2023/05/18 05:45:49;;;;;;;19.47;7.33;;;;;;;;;;769368;181;916118;-71
2023/05/18 05:48:15;;;;;;;14.37;6.40;;;;;;;;;;769794;180;918281;-71
2023/05/18 05:50:41;;;;;;;11.13;5.03;;;;;;;;;;772119;180;918700;-71
2023/05/18 05:53:06;;;;;;;15.90;5.63;;;;;;;;;;772832;180;920781;-70
2023/05/18 05:55:32;;;;;;;19.27;6.43;;;;;;;;;;775036;180;870280;-72
2023/05/18 05:57:58;;;;;;;9.73;4.57;;;;;;;;;;767123;180;920422;-71
2023/05/18 06:00:26;;;;;;;12.97;6.63;;;;;;;;;;776832;180;814126;-71
2023/05/18 06:02:50;;;;;;;13.23;6.47;;;;;;;;;;765929;180;918657;-70
2023/05/18 06:05:16;;;;;;;8.13;5.57;;;;;;;;;;766455;180;919218;-71
2023/05/18 06:07:42;;;;;;;16.17;6.53;;;;;;;;;;772129;181;916022;-70
2023/05/18 06:10:08;;;;;;;14.43;6.90;;;;;;;;;;769348;180;934698;-71
2023/05/18 06:12:34;;;;;;;23.30;8.93;;;;;;;;;;763368;180;1012504;-71
2023/05/18 06:14:59;;;;;;;18.70;7.63;;;;;;;;;;772576;180;919136;-72
2023/05/18 06:17:25;;;;;;;22.63;8.67;;;;;;;;;;770414;180;918678;-71
2023/05/18 06:19:51;;;;;;;19.00;9.57;;;;;;;;;;773183;180;916408;-71
2023/05/18 06:22:17;;;;;;;14.00;8.17;;;;;;;;;;766065;181;919329;-71
2023/05/18 06:24:43;;;;;;;13.70;8.33;;;;;;;;;;783102;175;812319;-71
2023/05/18 06:27:10;;;;;;;15.83;6.60;;;;;;;;;;753933;182;1022867;-71
2023/05/18 06:29:35;;;;;;;15.40;9.10;;;;;;;;;;773011;180;637707;-71
2023/05/18 06:32:01;;;;;;;17.50;6.73;;;;;;;;;;775026;180;919155;-71
2023/05/18 06:34:26;;;;;;;17.40;9.30;;;;;;;;;;767885;181;919108;-71
2023/05/18 06:36:52;;;;;;;11.27;6.37;;;;;;;;;;763926;180;1020845;-71
2023/05/18 06:39:18;;;;;;;24.53;8.60;;;;;;;;;;770176;180;1013578;-71
2023/05/18 06:41:44;;;;;;;13.93;8.03;;;;;;;;;;765664;180;917247;-71
2023/05/18 06:44:10;;;;;;;17.30;8.60;;;;;;;;;;773177;180;1123047;-72
2023/05/18 06:46:36;;;;;;;14.57;10.83;;;;;;;;;;764250;181;918183;-71
2023/05/18 06:49:02;;;;;;;9.13;6.00;;;;;;;;;;771122;180;918679;-71
2023/05/18 06:51:27;;;;;;;16.13;7.17;;;;;;;;;;768879;180;919970;-71
2023/05/18 06:53:53;;;;;;;18.63;9.80;;;;;;;;;;770599;181;918194;-71
2023/05/18 06:56:20;;;;;;;20.80;7.73;;;;;;;;;;774674;180;920488;-71
2023/05/18 06:58:45;;;;;;;14.03;8.10;;;;;;;;;;765085;180;918779;-71
2023/05/18 07:01:11;;;;;;;20.12;7.60;;;;;;;;;;765775;180;919027;-71
2023/05/18 07:03:37;;;;;;;17.25;8.65;;;;;;;;;;776223;180;946067;-71
2023/05/18 07:06:03;;;;;;;25.77;9.80;;;;;;;;;;758402;182;918388;-68
2023/05/18 07:08:28;;;;;;;27.57;12.47;;;;;;;;;;733332;190;909644;-67
2023/05/18 07:10:56;;;;;;;13.27;8.77;;;;;;;;;;742886;187;918285;-68
2023/05/18 07:13:20;;;;;;;14.87;8.27;;;;;;;;;;744664;186;904263;-61
2023/05/18 07:15:46;;;;;;;23.30;9.10;;;;;;;;;;741740;184;919397;-67
2023/05/18 07:18:12;;;;;;;9.47;5.90;;;;;;;;;;745716;186;930718;-67
2023/05/18 07:20:38;;;;;;;17.30;9.57;;;;;;;;;;751121;181;914988;-66
2023/05/18 07:23:04;;;;;;;11.67;8.43;;;;;;;;;;737973;188;918387;-61
2023/05/18 07:25:30;;;;;;;15.53;8.50;;;;;;;;;;744015;187;926628;-60
2023/05/18 07:27:55;;;;;;;23.37;8.43;;;;;;;;;;742604;185;912914;-67
2023/05/18 07:30:21;;;;;;;12.07;7.23;;;;;;;;;;742066;185;916371;-61
2023/05/18 07:32:47;;;;;;;15.20;8.57;;;;;;;;;;736467;186;920956;-68
2023/05/18 07:35:15;;;;;;;14.63;8.37;;;;;;;;;;751923;185;817647;-68
2023/05/18 07:37:39;;;;;;;18.83;9.17;;;;;;;;;;739092;185;920007;-67
2023/05/18 07:40:05;;;;;;;13.43;7.20;;;;;;;;;;746592;184;814104;-66
2023/05/18 07:42:32;;;;;;;25.23;7.30;;;;;;;;;;746156;184;918024;-60
2023/05/18 07:44:57;;;;;;;13.10;6.50;;;;;;;;;;740992;187;917379;-61
2023/05/18 07:47:24;;;;;;;16.40;5.63;;;;;;;;;;743191;185;884592;-60
2023/05/18 07:49:50;;;;;;;10.40;6.30;;;;;;;;;;741400;187;918322;-61
2023/05/18 07:52:15;;;;;;;15.85;7.82;;;;;;;;;;750272;185;908037;-60
2023/05/18 07:54:41;;;;;;;11.13;7.50;;;;;;;;;;742951;184;919293;-61
2023/05/18 07:57:07;;;;;;;21.63;7.37;;;;;;;;;;742672;185;919122;-60
2023/05/18 07:59:33;;;;;;;17.97;7.00;;;;;;;;;;748366;187;918663;-67
2023/05/18 08:01:59;;;;;;;16.17;5.50;;;;;;;;;;743815;186;817090;-67
2023/05/18 08:04:25;;;;;;;16.30;6.73;;;;;;;;;;742414;184;916309;-61
2023/05/18 08:06:53;;;;;;;8.00;5.27;;;;;;;;;;735334;186;815779;-61
2023/05/18 08:09:17;;;;;;;11.70;7.73;;;;;;;;;;740822;187;917182;-67
2023/05/18 08:11:43;;;;;;;7.97;5.27;;;;;;;;;;735155;189;919304;-67
2023/05/18 08:14:08;;;;;;;17.87;8.27;;;;;;;;;;740751;185;849457;-67
2023/05/18 08:16:36;;;;;;;14.63;6.87;;;;;;;;;;751008;186;808604;-67
2023/05/18 08:19:00;;;;;;;17.10;6.40;;;;;;;;;;736666;187;914323;-67
2023/05/18 08:21:27;;;;;;;10.63;5.47;;;;;;;;;;734679;187;919361;-67
2023/05/18 08:23:52;;;;;;;9.48;5.35;;;;;;;;;;749414;184;919270;-67
2023/05/18 08:26:18;;;;;;;10.40;5.97;;;;;;;;;;742358;185;919295;-60
2023/05/18 08:28:44;;;;;;;12.63;6.97;;;;;;;;;;740608;185;1020720;-61
2023/05/18 08:31:11;;;;;;;21.97;8.37;;;;;;;;;;743817;184;848813;-61
2023/05/18 08:33:35;;;;;;;20.10;10.90;;;;;;;;;;741578;186;919149;-61
2023/05/18 08:36:01;;;;;;;33.07;14.47;;;;;;;;;;743794;184;819724;-68
2023/05/18 08:38:28;;;;;;;16.00;8.95;;;;;;;;;;746704;186;919804;-67
2023/05/18 08:40:55;;;;;;;13.60;6.90;;;;;;;;;;748601;183;919138;-68
2023/05/18 08:43:22;;;;;;;17.10;5.57;;;;;;;;;;735336;188;918744;-67
2023/05/18 08:45:47;;;;;;;14.60;5.93;;;;;;;;;;741333;188;919568;-67
2023/05/18 08:48:13;;;;;;;8.37;4.03;;;;;;;;;;747813;187;919809;-60
2023/05/18 08:50:39;;;;;;;14.18;7.12;;;;;;;;;;744641;187;917193;-59
2023/05/18 08:53:05;;;;;;;21.33;6.60;;;;;;;;;;742379;187;919709;-60
2023/05/18 08:55:35;;;;;;;11.10;5.32;;;;;;;;;;745348;187;916882;-67
2023/05/18 08:57:56;;;;;;;10.97;6.80;;;;;;;;;;745138;187;919627;-60
2023/05/18 09:00:23;;;;;;;7.22;4.35;;;;;;;;;;743000;187;930037;-67
2023/05/18 09:02:48;;;;;;;8.48;5.07;;;;;;;;;;745804;186;920414;-60
2023/05/18 09:05:14;;;;;;;8.43;4.80;;;;;;;;;;747423;185;919664;-59
2023/05/18 09:07:41;;;;;;;17.87;6.80;;;;;;;;;;739889;184;919748;-68
2023/05/18 09:10:06;;;;;;;12.80;6.25;;;;;;;;;;744205;185;814660;-60
2023/05/18 09:12:32;;;;;;;8.50;5.63;;;;;;;;;;746214;185;713990;-68
2023/05/18 09:14:58;;;;;;;15.30;6.53;;;;;;;;;;737956;187;921633;-67
2023/05/18 09:17:24;;;;;;;9.80;5.63;;;;;;;;;;746037;185;920048;-67
2023/05/18 09:19:50;;;;;;;25.13;7.83;;;;;;;;;;749330;185;919556;-67
2023/05/18 09:22:16;;;;;;;9.50;5.17;;;;;;;;;;741625;185;971308;-67
2023/05/18 09:24:41;;;;;;;7.50;5.37;;;;;;;;;;743139;185;917477;-59
2023/05/18 09:27:07;;;;;;;11.40;5.67;;;;;;;;;;747539;187;914569;-59
2023/05/18 09:29:33;;;;;;;8.03;4.87;;;;;;;;;;740223;185;935935;-68
2023/05/18 09:32:03;;;;;;;7.77;5.40;;;;;;;;;;741240;187;918704;-67
2023/05/18 09:34:28;;;;;;;8.70;5.00;;;;;;;;;;742515;184;918786;-65
2023/05/18 09:36:55;;;;;;;13.30;6.90;;;;;;;;;;745926;185;917359;-67
2023/05/18 09:39:19;;;;;;;11.50;5.67;;;;;;;;;;746098;185;914613;-60
2023/05/18 09:41:45;;;;;;;12.40;6.25;;;;;;;;;;732788;191;918698;-60
2023/05/18 09:44:11;;;;;;;15.40;6.50;;;;;;;;;;746556;188;822520;-66
2023/05/18 09:46:38;;;;;;;21.43;5.97;;;;;;;;;;744794;185;929708;-60
2023/05/18 09:49:03;;;;;;;11.97;6.10;;;;;;;;;;743760;186;949962;-67
2023/05/18 09:51:30;;;;;;;15.20;6.23;;;;;;;;;;746178;186;915410;-63
2023/05/18 09:53:55;;;;;;;12.10;4.73;;;;;;;;;;741155;187;919519;-64
2023/05/18 09:56:21;;;;;;;11.50;4.93;;;;;;;;;;744065;186;919222;-68
2023/05/18 09:58:47;;;;;;;13.67;6.40;;;;;;;;;;741628;185;919333;-67
2023/05/18 10:01:13;;;;;;;23.03;8.20;;;;;;;;;;743335;187;913908;-67
2023/05/18 10:03:39;;;;;;;11.63;6.50;;;;;;;;;;731363;187;1021529;-68
2023/05/18 10:06:05;;;;;;;16.50;6.20;;;;;;;;;;736207;188;915798;-60
2023/05/18 10:08:31;;;;;;;11.53;5.83;;;;;;;;;;746157;187;921103;-60
2023/05/18 10:10:57;;;;;;;16.80;5.13;;;;;;;;;;741718;187;917281;-68
2023/05/18 10:13:22;;;;;;;7.63;4.77;;;;;;;;;;743842;185;920386;-68
2023/05/18 10:15:48;;;;;;;9.10;4.90;;;;;;;;;;750985;186;776472;-60
2023/05/18 10:18:14;;;;;;;6.57;4.10;;;;;;;;;;748554;185;816599;-60
2023/05/18 10:20:40;;;;;;;8.95;3.58;;;;;;;;;;742674;187;920038;-68
2023/05/18 10:23:06;;;;;;;6.03;3.50;;;;;;;;;;746384;186;917238;-61
2023/05/18 10:25:32;;;;;;;14.40;6.40;;;;;;;;;;747636;187;920913;-68
2023/05/18 10:27:58;;;;;;;10.53;4.87;;;;;;;;;;744841;187;919573;-60
2023/05/18 10:30:23;;;;;;;13.27;5.73;;;;;;;;;;739635;187;916752;-67
2023/05/18 10:32:49;;;;;;;12.97;5.47;;;;;;;;;;749050;184;917348;-68
2023/05/18 10:35:15;;;;;;;16.07;7.43;;;;;;;;;;740998;187;942740;-67
2023/05/18 10:37:41;;;;;;;12.70;5.40;;;;;;;;;;741988;184;916138;-67
2023/05/18 10:40:07;;;;;;;11.30;4.87;;;;;;;;;;748662;186;918723;-68
2023/05/18 10:42:33;;;;;;;13.60;5.27;;;;;;;;;;743998;185;919783;-69
2023/05/18 10:45:00;;;;;;;12.63;6.20;;;;;;;;;;743644;187;916205;-67
2023/05/18 10:47:25;;;;;;;10.88;5.65;;;;;;;;;;746318;187;844539;-67
2023/05/18 10:49:51;;;;;;;10.30;6.77;;;;;;;;;;749876;187;908107;-69
2023/05/18 10:52:17;;;;;;;12.87;5.80;;;;;;;;;;739796;186;919602;-68
2023/05/18 10:54:43;;;;;;;7.57;3.97;;;;;;;;;;741887;185;816301;-67
2023/05/18 10:57:09;;;;;;;8.60;4.43;;;;;;;;;;744452;187;919463;-60
2023/05/18 10:59:35;;;;;;;9.37;5.83;;;;;;;;;;739168;185;912663;-67
2023/05/18 11:02:01;;;;;;;7.33;4.70;;;;;;;;;;734538;185;917653;-60
2023/05/18 11:04:28;;;;;;;7.57;4.30;;;;;;;;;;746613;185;914652;-60
2023/05/18 11:06:53;;;;;;;8.40;5.13;;;;;;;;;;741795;184;921154;-67
2023/05/18 11:09:22;;;;;;;9.13;4.10;;;;;;;;;;738985;186;921185;-60
2023/05/18 11:11:50;;;;;;;7.75;4.05;;;;;;;;;;740139;186;919370;-60
2023/05/18 11:14:16;;;;;;;12.33;5.00;;;;;;;;;;744065;187;909027;-61
2023/05/18 11:16:42;;;;;;;10.98;4.72;;;;;;;;;;741760;186;915999;-60
2023/05/18 11:19:11;;;;;;;13.17;4.27;;;;;;;;;;745411;184;920888;-67
2023/05/18 11:21:51;;;;;;;10.80;5.90;;;;;;;;;;744997;184;1023183;-61
2023/05/18 11:24:27;;;;;;;5.63;3.10;;;;;;;;;;746818;188;818538;-68
2023/05/18 11:26:53;;;;;;;8.90;4.50;;;;;;;;;;744695;187;818812;-61
2023/05/18 11:29:18;;;;;;;16.48;5.60;;;;;;;;;;743586;187;919457;-69
2023/05/18 11:31:44;;;;;;;10.20;4.97;;;;;;;;;;744180;184;919905;-69
2023/05/18 11:34:16;;;;;;;16.10;5.60;;;;;;;;;;747779;184;920656;-62
2023/05/18 11:36:42;;;;;;;11.10;4.07;;;;;;;;;;743954;186;918508;-61
2023/05/18 11:39:10;;;;;;;7.03;3.47;;;;;;;;;;740297;187;920386;-68
2023/05/18 11:41:34;;;;;;;11.33;6.00;;;;;;;;;;744779;184;933529;-61
2023/05/18 11:44:05;;;;;;;15.13;4.93;;;;;;;;;;747795;187;815559;-60
2023/05/18 11:46:29;;;;;;;8.57;4.53;;;;;;;;;;741977;185;916860;-61
2023/05/18 11:48:55;;;;;;;8.50;3.23;;;;;;;;;;744831;187;919111;-69
2023/05/18 11:51:23;;;;;;;19.60;5.33;;;;;;;;;;750290;185;915848;-60
2023/05/18 11:53:47;;;;;;;13.27;5.67;;;;;;;;;;742711;185;920974;-64
2023/05/18 11:56:13;;;;;;;17.40;4.60;;;;;;;;;;743879;184;919368;-69
2023/05/18 11:58:39;;;;;;;7.00;4.30;;;;;;;;;;747063;187;900038;-69
2023/05/18 12:01:05;;;;;;;7.00;4.17;;;;;;;;;;746709;185;918949;-69
2023/05/18 12:03:30;;;;;;;9.73;3.83;;;;;;;;;;743022;185;916288;-61
2023/05/18 12:05:57;;;;;;;11.05;4.10;;;;;;;;;;745240;185;712726;-61
2023/05/18 12:08:28;;;;;;;13.63;4.33;;;;;;;;;;747888;185;920155;-69
2023/05/18 12:10:49;;;;;;;9.50;3.50;;;;;;;;;;742352;187;918778;-68
2023/05/18 12:13:15;;;;;;;10.53;4.73;;;;;;;;;;743417;185;921292;-61
2023/05/18 12:15:40;;;;;;;6.40;3.63;;;;;;;;;;747030;187;927704;-69
2023/05/18 12:18:06;;;;;;;5.17;2.60;;;;;;;;;;745040;185;745111;-67
2023/05/18 12:20:34;;;;;;;12.95;4.68;;;;;;;;;;738481;187;926697;-61
2023/05/18 12:22:58;;;;;;;8.57;5.33;;;;;;;;;;742523;187;916318;-60
2023/05/18 12:25:24;;;;;;;8.37;3.93;;;;;;;;;;746095;185;919876;-70
2023/05/18 12:27:50;;;;;;;8.37;2.70;;;;;;;;;;744714;185;712445;-69
2023/05/18 12:30:17;;;;;;;9.00;4.90;;;;;;;;;;731413;189;918729;-61
2023/05/18 12:32:43;;;;;;;7.00;3.13;;;;;;;;;;747567;188;625276;-68
2023/05/18 12:35:09;;;;;;;12.97;3.90;;;;;;;;;;742209;187;814067;-68
2023/05/18 12:37:42;;;;;;;5.40;3.03;;;;;;;;;;740574;186;919619;-61
2023/05/18 12:40:08;;;;;;;8.63;3.50;;;;;;;;;;746576;186;914085;-61
2023/05/18 12:42:34;;;;;;;7.73;3.80;;;;;;;;;;741435;184;921876;-69
2023/05/18 12:45:00;;;;;;;6.13;2.67;;;;;;;;;;741463;184;919228;-61
2023/05/18 12:47:25;;;;;;;9.67;3.47;;;;;;;;;;742998;187;919241;-67
2023/05/18 12:49:51;;;;;;;7.03;4.27;;;;;;;;;;747126;186;843388;-61
2023/05/18 12:52:17;;;;;;;8.97;3.70;;;;;;;;;;742034;184;919074;-61
2023/05/18 12:54:53;;;;;;;10.85;3.08;;;;;;;;;;746220;185;909176;-62
2023/05/18 12:57:15;;;;;;;9.00;4.70;;;;;;;;;;748183;187;814094;-61
2023/05/18 12:59:49;;;;;;;7.62;4.40;;;;;;;;;;736009;187;919382;-68
2023/05/18 13:02:20;;;;;;;5.07;3.10;;;;;;;;;;740580;185;920941;-68
2023/05/18 13:04:46;;;;;;;6.20;3.63;;;;;;;;;;739254;185;834886;-61
2023/05/18 13:07:12;;;;;;;6.80;3.40;;;;;;;;;;744598;185;917901;-61
2023/05/18 13:09:38;;;;;;;9.23;3.10;;;;;;;;;;740232;186;913966;-61
2023/05/18 13:12:04;;;;;;;8.20;3.67;;;;;;;;;;742336;184;1022124;-61
2023/05/18 13:14:31;;;;;;;7.80;3.97;;;;;;;;;;741598;186;918034;-61
2023/05/18 13:16:56;;;;;;;9.13;5.10;;;;;;;;;;733971;189;923734;-68
2023/05/18 13:19:22;;;;;;;7.23;3.93;;;;;;;;;;739244;186;921782;-69
2023/05/18 13:21:47;;;;;;;6.30;2.97;;;;;;;;;;740742;184;919026;-61
2023/05/18 13:24:13;;;;;;;11.93;5.60;;;;;;;;;;746039;187;918075;-67
2023/05/18 13:26:39;;;;;;;7.95;3.95;;;;;;;;;;743300;184;919404;-69
2023/05/18 13:29:06;;;;;;;8.33;3.90;;;;;;;;;;740448;187;919573;-68
2023/05/18 13:31:31;;;;;;;10.77;7.77;;;;;;;;;;745714;184;920288;-61
2023/05/18 13:33:56;;;;;;;11.93;8.13;;;;;;;;;;743919;185;919161;-68
2023/05/18 13:36:22;;;;;;;9.23;3.70;;;;;;;;;;741328;185;919781;-67
2023/05/18 13:38:48;;;;;;;85.87;44.10;;;;;;;;;;742184;187;919041;-67
2023/05/18 13:41:14;;;;;;;36.20;24.43;;;;;;;;;;747175;186;815613;-61
2023/05/18 13:43:41;;;;;;;29.70;16.43;;;;;;;;;;734075;184;919235;-61
2023/05/18 13:46:06;;;;;;;19.83;15.30;;;;;;;;;;741239;187;919295;-61
2023/05/18 13:48:32;;;;;;;23.10;11.57;;;;;;;;;;747795;185;913439;-69
2023/05/18 13:50:57;;;;;;;16.50;9.17;;;;;;;;;;744767;185;914654;-68
2023/05/18 13:53:23;;;;;;;13.45;7.55;;;;;;;;;;747666;185;809404;-60
2023/05/18 13:55:49;;;;;;;8.13;5.70;;;;;;;;;;752354;185;918404;-68
2023/05/18 13:58:15;;;;;;;9.20;5.90;;;;;;;;;;741036;185;1009410;-67
2023/05/18 14:00:41;;;;;;;9.10;5.50;;;;;;;;;;746448;185;915490;-67
2023/05/18 14:03:07;;;;;;;14.23;5.20;;;;;;;;;;746840;186;872861;-60
2023/05/18 14:05:32;;;;;;;13.10;5.33;;;;;;;;;;742040;185;919856;-61
2023/05/18 14:07:58;;;;;;;14.33;5.70;;;;;;;;;;741342;187;920193;-60
2023/05/18 14:10:24;;;;;;;8.10;3.70;;;;;;;;;;743218;185;931306;-60